石見空港の過去48時間の天気

石見空港 (Iwami)

現在時刻: 2/21 13:04 JST (2/21 04:04 UTC) 以下の時間は現地時間です。

過去48時間のMETAR気象情報
時間 風向 風速(m/s) 視程 気温(℃) 湿度(%) 気圧(hPa) 天気現象
21 12:00 不定 2 10km以上 15 25 1033
21 11:00 2 10km以上 13 28 1034
21 10:00 南南東 2 10km以上 10 43 1034
21 09:00 南南東 4 10km以上 6 57 1035
21 08:00 5 10km以上 3 70 1034
RJOW 210300Z VRB03KT CAVOK 15/M05 Q1033
RJOW 210200Z 18004KT 080V230 CAVOK 13/M05 Q1034
RJOW 210100Z 16004KT CAVOK 10/M02 Q1034
RJOW 210000Z 16007KT CAVOK 06/M02 Q1035
RJOW 202300Z 17010KT CAVOK 03/M02 Q1034